Accueil
METAR-TAF:

METAR-TAF

Aéroports :

Aéroport de Francfort-Hahn

Hahn, Allemagne

latitude: 49-57N, longitude: 007-16E, altitude: 491 m

Observation

Le bulletin a été fait il y a 33 minutes, à 00:50 UTC
Vent 2 kt de direction variable
Température 4°C
Humidité 65%
Pression 1033 hPa
Visibilité 10 km ou plus
pas de nuages en-dessous de 1500 mètres et pas de cumulonimbus.

METAR: EDFH 210050Z VRB02KT CAVOK 04/M02 Q1033

Heure: 02:23 (01:23 UTC)

Prévision

Le bulletin a été fait il y a 2 heures et 23 minutes, à 23:00 UTC
Prévision valable du 21 à 00 UTC au 21 à 24 UTC
Vent 5 kt de sud-est
Visibilité 10 km ou plus
pas de nuages en-dessous de 1500 mètres et pas de cumulonimbus.
Evoluant progressivement
du 21 à 09 UTC au 21 à 12 UTC
Vent 7 kt de est

TAF: EDFH 202300Z 2100/2124 14005KT CAVOK BECMG 2109/2112 08007KT

Observations et prévisions météorologiques de plus de 4000 aéroports (messages METAR et TAF).

Les stations disponibles sont représentées par des disques jaunes et rouges sur la carte.

Passer la souris dessus pour voir le nom de la station.

Cliquer dessus pour voir les observations et prévisions météorologiques.

Pour changer de carte: cliquez sur les boutons verts avec une croix noire pour zoomer, sur le bouton vert avec un tiret pour effectuer un zoom arrière, ou sur les flèches vertes pour les cartes adjacentes.


METAR-TAF: